createdAt,value
2016-08-29T00:00:07.674Z,1011.27
2016-08-29T00:00:17.668Z,1011.32
2016-08-29T00:00:27.662Z,1011.33
2016-08-29T00:00:37.660Z,1011.31
2016-08-29T00:00:47.654Z,1011.32
2016-08-29T00:00:57.652Z,1011.31
2016-08-29T00:01:07.648Z,1011.3
2016-08-29T00:01:17.645Z,1011.28
2016-08-29T00:01:28.374Z,1011.26
2016-08-29T00:01:37.633Z,1011.29
2016-08-29T00:01:47.630Z,1011.26
2016-08-29T00:01:57.624Z,1011.31
2016-08-29T00:02:07.622Z,1011.27
2016-08-29T00:02:17.617Z,1011.28
2016-08-29T00:02:27.613Z,1011.28
2016-08-29T00:02:37.610Z,1011.23
2016-08-29T00:02:47.607Z,1011.26
2016-08-29T00:02:57.600Z,1011.27
2016-08-29T00:03:07.595Z,1011.26
2016-08-29T00:03:17.590Z,1011.25
2016-08-29T00:03:27.586Z,1011.23
2016-08-29T00:03:37.582Z,1011.26
2016-08-29T00:03:47.578Z,1011.24
2016-08-29T00:03:57.575Z,1011.25
2016-08-29T00:04:07.568Z,1011.21
2016-08-29T00:04:17.565Z,1011.22
2016-08-29T00:04:27.561Z,1011.26
2016-08-29T00:04:37.556Z,1011.21
2016-08-29T00:04:47.550Z,1011.24
2016-08-29T00:04:57.547Z,1011.25
2016-08-29T00:05:07.545Z,1011.25
2016-08-29T00:05:17.540Z,1011.2
2016-08-29T00:05:27.535Z,1011.24
2016-08-29T00:05:37.531Z,1011.26
2016-08-29T00:05:47.527Z,1011.28
2016-08-29T00:05:57.521Z,1011.24
2016-08-29T00:06:07.517Z,1011.25
2016-08-29T00:06:18.242Z,1011.25
2016-08-29T00:06:27.509Z,1011.25
2016-08-29T00:06:37.504Z,1011.23
2016-08-29T00:06:47.500Z,1011.25
2016-08-29T00:06:57.496Z,1011.21
2016-08-29T00:07:07.490Z,1011.24
2016-08-29T00:07:17.490Z,1011.21
2016-08-29T00:07:27.483Z,1011.24
2016-08-29T00:07:38.204Z,1011.24
2016-08-29T00:07:47.471Z,1011.24
2016-08-29T00:07:57.467Z,1011.22
2016-08-29T00:08:07.462Z,1011.24
2016-08-29T00:08:17.458Z,1011.22
2016-08-29T00:08:27.463Z,1011.26
2016-08-29T00:08:37.450Z,1011.22
2016-08-29T00:08:47.447Z,1011.21
2016-08-29T00:08:57.444Z,1011.22
2016-08-29T00:09:07.438Z,1011.21
2016-08-29T00:09:17.432Z,1011.21
2016-08-29T00:09:27.430Z,1011.24
2016-08-29T00:09:37.425Z,1011.21
2016-08-29T00:09:47.437Z,1011.18
2016-08-29T00:09:57.417Z,1011.23
2016-08-29T00:10:07.413Z,1011.22
2016-08-29T00:10:17.409Z,1011.21
2016-08-29T00:10:27.402Z,1011.21
2016-08-29T00:10:37.399Z,1011.21
2016-08-29T00:10:47.395Z,1011.23
2016-08-29T00:10:57.389Z,1011.25
2016-08-29T00:11:07.386Z,1011.24
2016-08-29T00:11:17.381Z,1011.21
2016-08-29T00:11:27.377Z,1011.2
2016-08-29T00:11:37.375Z,1011.21
2016-08-29T00:11:47.370Z,1011.22
2016-08-29T00:11:57.363Z,1011.23
2016-08-29T00:12:07.360Z,1011.21
2016-08-29T00:12:17.354Z,1011.19
2016-08-29T00:12:27.352Z,1011.18
2016-08-29T00:12:37.346Z,1011.2
2016-08-29T00:12:47.342Z,1011.21
2016-08-29T00:12:57.337Z,1011.19
2016-08-29T00:13:07.334Z,1011.22
2016-08-29T00:13:17.330Z,1011.21
2016-08-29T00:13:27.324Z,1011.21
2016-08-29T00:13:37.320Z,1011.22
2016-08-29T00:13:47.317Z,1011.19
2016-08-29T00:13:57.311Z,1011.15
2016-08-29T00:14:07.308Z,1011.17
2016-08-29T00:14:17.302Z,1011.21
2016-08-29T00:14:27.299Z,1011.23
2016-08-29T00:14:37.294Z,1011.19
2016-08-29T00:14:47.289Z,1011.24
2016-08-29T00:14:57.285Z,1011.17
2016-08-29T00:15:07.279Z,1011.2
2016-08-29T00:15:17.277Z,1011.19
2016-08-29T00:15:27.273Z,1011.2
2016-08-29T00:15:37.268Z,1011.14
2016-08-29T00:15:47.264Z,1011.21
2016-08-29T00:15:57.261Z,1011.23
2016-08-29T00:16:07.255Z,1011.18
2016-08-29T00:16:17.250Z,1011.16
2016-08-29T00:16:27.244Z,1011.18
2016-08-29T00:16:37.241Z,1011.19
2016-08-29T00:16:47.238Z,1011.2
2016-08-29T00:16:57.235Z,1011.23
2016-08-29T00:17:07.230Z,1011.18
2016-08-29T00:17:17.224Z,1011.16
2016-08-29T00:17:27.219Z,1011.17
2016-08-29T00:17:37.215Z,1011.21
2016-08-29T00:17:47.216Z,1011.16
2016-08-29T00:17:57.207Z,1011.22
2016-08-29T00:18:07.204Z,1011.18
2016-08-29T00:18:17.198Z,1011.2
2016-08-29T00:18:27.194Z,1011.16
2016-08-29T00:18:37.189Z,1011.23
2016-08-29T00:18:47.190Z,1011.16
2016-08-29T00:18:57.182Z,1011.18
2016-08-29T00:19:07.179Z,1011.2
2016-08-29T00:19:17.173Z,1011.18
2016-08-29T00:19:27.168Z,1011.15
2016-08-29T00:19:37.165Z,1011.17
2016-08-29T00:19:47.158Z,1011.2
2016-08-29T00:19:57.156Z,1011.16
2016-08-29T00:20:07.149Z,1011.16
2016-08-29T00:20:17.147Z,1011.18
2016-08-29T00:20:27.143Z,1011.16
2016-08-29T00:20:37.136Z,1011.16
2016-08-29T00:20:47.134Z,1011.18
2016-08-29T00:20:57.127Z,1011.22
2016-08-29T00:21:07.125Z,1011.17
2016-08-29T00:21:17.123Z,1011.22
2016-08-29T00:21:27.116Z,1011.19
2016-08-29T00:21:37.110Z,1011.21
2016-08-29T00:21:47.108Z,1011.19
2016-08-29T00:21:57.103Z,1011.19
2016-08-29T00:22:07.100Z,1011.19
2016-08-29T00:22:17.093Z,1011.15
2016-08-29T00:22:27.088Z,1011.22
2016-08-29T00:22:37.084Z,1011.19
2016-08-29T00:22:47.080Z,1011.21
2016-08-29T00:22:57.083Z,1011.19
2016-08-29T00:23:07.072Z,1011.16
2016-08-29T00:23:17.068Z,1011.19
2016-08-29T00:23:27.072Z,1011.17
2016-08-29T00:23:37.060Z,1011.18
2016-08-29T00:23:47.054Z,1011.18
2016-08-29T00:23:57.051Z,1011.14
2016-08-29T00:24:07.046Z,1011.2
2016-08-29T00:24:17.041Z,1011.16
2016-08-29T00:24:27.037Z,1011.17
2016-08-29T00:24:37.033Z,1011.17
2016-08-29T00:24:47.763Z,1011.18
2016-08-29T00:24:57.025Z,1011.16
2016-08-29T00:25:07.019Z,1011.18
2016-08-29T00:25:17.016Z,1011.16
2016-08-29T00:25:27.009Z,1011.17
2016-08-29T00:25:37.011Z,1011.18
2016-08-29T00:25:47.004Z,1011.17
2016-08-29T00:25:56.997Z,1011.14
2016-08-29T00:26:06.996Z,1011.12
2016-08-29T00:26:16.989Z,1011.17
2016-08-29T00:26:26.985Z,1011.18
2016-08-29T00:26:36.982Z,1011.13
2016-08-29T00:26:46.975Z,1011.13
2016-08-29T00:26:56.973Z,1011.17
2016-08-29T00:27:06.970Z,1011.15
2016-08-29T00:27:16.963Z,1011.14
2016-08-29T00:27:26.958Z,1011.1
2016-08-29T00:27:36.955Z,1011.1
2016-08-29T00:27:46.957Z,1011.12
2016-08-29T00:27:56.945Z,1011.16
2016-08-29T00:28:06.941Z,1011.14
2016-08-29T00:28:16.935Z,1011.15
2016-08-29T00:28:26.931Z,1011.12
2016-08-29T00:28:36.926Z,1011.13
2016-08-29T00:28:46.920Z,1011.13
2016-08-29T00:28:56.924Z,1011.16
2016-08-29T00:29:06.914Z,1011.15
2016-08-29T00:29:16.907Z,1011.13
2016-08-29T00:29:26.907Z,1011.16
2016-08-29T00:29:36.908Z,1011.12
2016-08-29T00:29:46.896Z,1011.12
2016-08-29T00:29:56.892Z,1011.14
2016-08-29T00:30:06.888Z,1011.17
2016-08-29T00:30:16.884Z,1011.16
2016-08-29T00:30:26.879Z,1011.15
2016-08-29T00:30:36.876Z,1011.1
2016-08-29T00:30:46.869Z,1011.16
2016-08-29T00:30:56.873Z,1011.16
2016-08-29T00:31:06.862Z,1011.15
2016-08-29T00:31:16.858Z,1011.16
2016-08-29T00:31:26.855Z,1011.16
2016-08-29T00:31:36.849Z,1011.17
2016-08-29T00:31:46.845Z,1011.12
2016-08-29T00:31:56.841Z,1011.1
2016-08-29T00:32:06.835Z,1011.19
2016-08-29T00:32:16.832Z,1011.14
2016-08-29T00:32:26.826Z,1011.12
2016-08-29T00:32:36.822Z,1011.18
2016-08-29T00:32:46.816Z,1011.16
2016-08-29T00:32:56.816Z,1011.17
2016-08-29T00:33:06.809Z,1011.18
2016-08-29T00:33:16.806Z,1011.14
2016-08-29T00:33:26.799Z,1011.17
2016-08-29T00:33:36.798Z,1011.17
2016-08-29T00:33:46.794Z,1011.17
2016-08-29T00:33:56.789Z,1011.13
2016-08-29T00:34:06.783Z,1011.17
2016-08-29T00:34:16.778Z,1011.18
2016-08-29T00:34:26.775Z,1011.18
2016-08-29T00:34:36.771Z,1011.16
2016-08-29T00:34:46.766Z,1011.19
2016-08-29T00:34:56.782Z,1011.19
2016-08-29T00:35:07.485Z,1011.2
2016-08-29T00:35:16.752Z,1011.2
2016-08-29T00:35:26.748Z,1011.18
2016-08-29T00:35:36.744Z,1011.17
2016-08-29T00:35:46.738Z,1011.15
2016-08-29T00:35:56.736Z,1011.18
2016-08-29T00:36:06.730Z,1011.17
2016-08-29T00:36:16.726Z,1011.15
2016-08-29T00:36:26.723Z,1011.19
2016-08-29T00:36:36.717Z,1011.13
2016-08-29T00:36:46.714Z,1011.11
2016-08-29T00:36:56.708Z,1011.16
2016-08-29T00:37:06.704Z,1011.18
2016-08-29T00:37:16.701Z,1011.13
2016-08-29T00:37:26.694Z,1011.1
2016-08-29T00:37:36.691Z,1011.17
2016-08-29T00:37:46.687Z,1011.15
2016-08-29T00:37:57.414Z,1011.14
2016-08-29T00:38:07.408Z,1011.17
2016-08-29T00:38:16.674Z,1011.16
2016-08-29T00:38:26.669Z,1011.11
2016-08-29T00:38:36.666Z,1011.13
2016-08-29T00:38:46.659Z,1011.08
2016-08-29T00:38:56.655Z,1011.1
2016-08-29T00:39:06.653Z,1011.14
2016-08-29T00:39:16.650Z,1011.1
2016-08-29T00:39:26.642Z,1011.14
2016-08-29T00:39:36.639Z,1011.13
2016-08-29T00:39:46.634Z,1011.17
2016-08-29T00:39:56.630Z,1011.12
2016-08-29T00:40:06.624Z,1011.14
2016-08-29T00:40:16.621Z,1011.13
2016-08-29T00:40:26.616Z,1011.14
2016-08-29T00:40:36.613Z,1011.14
2016-08-29T00:40:46.609Z,1011.16
2016-08-29T00:40:56.607Z,1011.16
2016-08-29T00:41:06.600Z,1011.14
2016-08-29T00:41:16.595Z,1011.11
2016-08-29T00:41:26.590Z,1011.11
2016-08-29T00:41:36.587Z,1011.12
2016-08-29T00:41:46.582Z,1011.16
2016-08-29T00:41:56.576Z,1011.14
2016-08-29T00:42:06.573Z,1011.12
2016-08-29T00:42:16.568Z,1011.09
2016-08-29T00:42:26.564Z,1011.09
2016-08-29T00:42:36.560Z,1011.11
2016-08-29T00:42:46.555Z,1011.14
2016-08-29T00:42:56.556Z,1011.12
2016-08-29T00:43:06.545Z,1011.16
2016-08-29T00:43:16.541Z,1011.13
2016-08-29T00:43:26.536Z,1011.14
2016-08-29T00:43:36.538Z,1011.18
2016-08-29T00:43:46.529Z,1011.13
2016-08-29T00:43:56.523Z,1011.12
2016-08-29T00:44:06.520Z,1011.13
2016-08-29T00:44:16.515Z,1011.09
2016-08-29T00:44:26.511Z,1011.13
2016-08-29T00:44:36.505Z,1011.12
2016-08-29T00:44:46.503Z,1011.05
2016-08-29T00:44:56.499Z,1011.08
2016-08-29T00:45:06.493Z,1011.11
2016-08-29T00:45:16.489Z,1011.09
2016-08-29T00:45:26.486Z,1011.13
2016-08-29T00:45:36.483Z,1011.05
2016-08-29T00:45:46.477Z,1011.12
2016-08-29T00:45:56.471Z,1011.08
2016-08-29T00:46:06.470Z,1011.12
2016-08-29T00:46:16.465Z,1011.09
2016-08-29T00:46:26.459Z,1011.11
2016-08-29T00:46:36.456Z,1011.09
2016-08-29T00:46:46.451Z,1011.07
2016-08-29T00:46:56.446Z,1011.07
2016-08-29T00:47:06.444Z,1011.1
2016-08-29T00:47:16.437Z,1011.06
2016-08-29T00:47:26.431Z,1011.07
2016-08-29T00:47:36.429Z,1011.09
2016-08-29T00:47:46.422Z,1011.12
2016-08-29T00:47:56.423Z,1011.04
2016-08-29T00:48:06.416Z,1011.07
2016-08-29T00:48:16.412Z,1011.06
2016-08-29T00:48:26.407Z,1011.04
2016-08-29T00:48:36.402Z,1011.07
2016-08-29T00:48:46.398Z,1011.07
2016-08-29T00:48:56.395Z,1011.07
2016-08-29T00:49:06.389Z,1011.05
2016-08-29T00:49:16.384Z,1011.06
2016-08-29T00:49:26.384Z,1011.09
2016-08-29T00:49:36.382Z,1011.01
2016-08-29T00:49:46.372Z,1011.05
2016-08-29T00:49:56.367Z,1011.1
2016-08-29T00:50:06.363Z,1011.06
2016-08-29T00:50:16.358Z,1011.09
2016-08-29T00:50:26.353Z,1011.06
2016-08-29T00:50:36.351Z,1011.04
2016-08-29T00:50:46.342Z,1011.08
2016-08-29T00:50:56.341Z,1011.03
2016-08-29T00:51:06.337Z,1011.03
2016-08-29T00:51:16.333Z,1011.09
2016-08-29T00:51:26.327Z,1011.04
2016-08-29T00:51:36.324Z,1011.04
2016-08-29T00:51:46.317Z,1011.07
2016-08-29T00:51:56.315Z,1011.08
2016-08-29T00:52:06.310Z,1011.07
2016-08-29T00:52:16.305Z,1011.12
2016-08-29T00:52:26.302Z,1011.06
2016-08-29T00:52:36.296Z,1011.11
2016-08-29T00:52:46.291Z,1011.09
2016-08-29T00:52:56.290Z,1011.04
2016-08-29T00:53:06.285Z,1011.06
2016-08-29T00:53:16.278Z,1011.07
2016-08-29T00:53:26.275Z,1011.09
2016-08-29T00:53:36.271Z,1011.06
2016-08-29T00:53:46.266Z,1011.09
2016-08-29T00:53:56.260Z,1011.07
2016-08-29T00:54:06.258Z,1011.06
2016-08-29T00:54:16.254Z,1011.06
2016-08-29T00:54:26.249Z,1011.08
2016-08-29T00:54:36.246Z,1011.08
2016-08-29T00:54:46.241Z,1011.15
2016-08-29T00:54:56.238Z,1011.1
2016-08-29T00:55:06.233Z,1011.09
2016-08-29T00:55:16.226Z,1011.05
2016-08-29T00:55:26.222Z,1011.13
2016-08-29T00:55:36.219Z,1011.07
2016-08-29T00:55:46.214Z,1011.09
2016-08-29T00:55:56.213Z,1011.09
2016-08-29T00:56:06.205Z,1011.02
2016-08-29T00:56:16.199Z,1011.09
2016-08-29T00:56:26.196Z,1011.06
2016-08-29T00:56:36.191Z,1011.05
2016-08-29T00:56:46.192Z,1011.07
2016-08-29T00:56:56.184Z,1011.07
2016-08-29T00:57:06.178Z,1011.09
2016-08-29T00:57:16.176Z,1011.03
2016-08-29T00:57:26.168Z,1011.04
2016-08-29T00:57:36.165Z,1011.08
2016-08-29T00:57:46.159Z,1011.05
2016-08-29T00:57:56.155Z,1011.05
2016-08-29T00:58:06.153Z,1011.02
2016-08-29T00:58:16.147Z,1011.03
2016-08-29T00:58:26.872Z,1011.06
2016-08-29T00:58:36.140Z,1011.04
2016-08-29T00:58:46.135Z,1011.01
2016-08-29T00:58:56.131Z,1011
2016-08-29T00:59:06.127Z,1011.05
2016-08-29T00:59:16.120Z,1011.01
2016-08-29T00:59:26.115Z,1011.03
2016-08-29T00:59:36.113Z,1011.05
2016-08-29T00:59:46.108Z,1011.06
2016-08-29T00:59:56.105Z,1011.01
2016-08-29T01:00:06.100Z,1011.02
2016-08-29T01:00:16.093Z,1011.01
2016-08-29T01:00:26.092Z,1011.04
2016-08-29T01:00:36.087Z,1011.01
2016-08-29T01:00:46.081Z,1011.01
2016-08-29T01:00:56.076Z,1011.02
2016-08-29T01:01:06.073Z,1011.02
2016-08-29T01:01:16.073Z,1011.01
2016-08-29T01:01:26.063Z,1010.97
2016-08-29T01:01:36.059Z,1011.02
2016-08-29T01:01:46.056Z,1011.01
2016-08-29T01:01:56.050Z,1010.99
2016-08-29T01:02:06.047Z,1010.98
2016-08-29T01:02:16.042Z,1010.99
2016-08-29T01:02:26.036Z,1011
2016-08-29T01:02:36.034Z,1010.97
2016-08-29T01:02:46.027Z,1010.98
2016-08-29T01:02:56.024Z,1010.99
2016-08-29T01:03:06.021Z,1010.98
2016-08-29T01:03:16.015Z,1010.98
2016-08-29T01:03:26.741Z,1010.98
2016-08-29T01:03:36.007Z,1011.02
2016-08-29T01:03:46.002Z,1011.01
2016-08-29T01:03:56.002Z,1011
2016-08-29T01:04:05.994Z,1011
2016-08-29T01:04:15.990Z,1011
2016-08-29T01:04:25.983Z,1010.98
2016-08-29T01:04:35.980Z,1011.04
2016-08-29T01:04:45.977Z,1011.03
2016-08-29T01:04:55.973Z,1011.01
2016-08-29T01:05:05.967Z,1011.02
2016-08-29T01:05:15.962Z,1010.98
2016-08-29T01:05:25.959Z,1011.07
2016-08-29T01:05:35.954Z,1011.01
2016-08-29T01:05:45.950Z,1011.03
2016-08-29T01:05:56.674Z,1011.02
2016-08-29T01:06:05.942Z,1011.01
2016-08-29T01:06:15.935Z,1011.01
2016-08-29T01:06:25.931Z,1011.04
2016-08-29T01:06:35.926Z,1011.01
2016-08-29T01:06:45.920Z,1011.03
2016-08-29T01:06:55.918Z,1011.01
2016-08-29T01:07:05.914Z,1011.06
2016-08-29T01:07:15.911Z,1011
2016-08-29T01:07:25.907Z,1011.01
2016-08-29T01:07:35.902Z,1010.99
2016-08-29T01:07:45.898Z,1011
2016-08-29T01:07:55.892Z,1010.99
2016-08-29T01:08:05.887Z,1011.01
2016-08-29T01:08:15.885Z,1010.98
2016-08-29T01:08:25.878Z,1010.94
2016-08-29T01:08:35.874Z,1010.99
2016-08-29T01:08:45.872Z,1010.98
2016-08-29T01:08:55.866Z,1011.04
2016-08-29T01:09:05.862Z,1010.98
2016-08-29T01:09:15.858Z,1011
2016-08-29T01:09:25.851Z,1010.97
2016-08-29T01:09:35.849Z,1010.99
2016-08-29T01:09:45.843Z,1011.02
2016-08-29T01:09:55.840Z,1011.03
2016-08-29T01:10:05.837Z,1011.03
2016-08-29T01:10:15.832Z,1011
2016-08-29T01:10:25.827Z,1011
2016-08-29T01:10:35.828Z,1011
2016-08-29T01:10:45.818Z,1010.98
2016-08-29T01:10:55.817Z,1010.97
2016-08-29T01:11:05.809Z,1010.99
2016-08-29T01:11:15.805Z,1011
2016-08-29T01:11:25.801Z,1011.02
2016-08-29T01:11:35.797Z,1011.04
2016-08-29T01:11:45.792Z,1010.98
2016-08-29T01:11:55.786Z,1010.99
2016-08-29T01:12:05.781Z,1011.01
2016-08-29T01:12:15.778Z,1011
2016-08-29T01:12:25.775Z,1010.96
2016-08-29T01:12:35.768Z,1011.01
2016-08-29T01:12:45.765Z,1011.02
2016-08-29T01:12:55.760Z,1011.01
2016-08-29T01:13:05.758Z,1010.96
2016-08-29T01:13:15.752Z,1010.99
2016-08-29T01:13:25.747Z,1010.94
2016-08-29T01:13:35.743Z,1010.95
2016-08-29T01:13:45.739Z,1010.91
2016-08-29T01:13:55.736Z,1010.94
2016-08-29T01:14:05.729Z,1010.96
2016-08-29T01:14:15.727Z,1010.93
2016-08-29T01:14:25.722Z,1010.93
2016-08-29T01:14:35.717Z,1010.93
2016-08-29T01:14:45.712Z,1010.96
2016-08-29T01:14:55.707Z,1010.95
2016-08-29T01:15:05.703Z,1010.97
2016-08-29T01:15:15.697Z,1010.94
2016-08-29T01:15:25.695Z,1010.93
2016-08-29T01:15:35.689Z,1010.88
2016-08-29T01:15:45.687Z,1010.94
2016-08-29T01:15:55.681Z,1010.91
2016-08-29T01:16:05.677Z,1010.9
2016-08-29T01:16:15.675Z,1010.94
2016-08-29T01:16:25.669Z,1010.93
2016-08-29T01:16:35.663Z,1010.94
2016-08-29T01:16:45.659Z,1010.93
2016-08-29T01:16:55.654Z,1010.88
2016-08-29T01:17:05.651Z,1010.91
2016-08-29T01:17:15.647Z,1010.93
2016-08-29T01:17:25.642Z,1010.92
2016-08-29T01:17:35.638Z,1010.91
2016-08-29T01:17:45.633Z,1010.87
2016-08-29T01:17:55.627Z,1010.88
2016-08-29T01:18:05.625Z,1010.89
2016-08-29T01:18:15.620Z,1010.92
2016-08-29T01:18:25.616Z,1010.9
2016-08-29T01:18:35.612Z,1010.91
2016-08-29T01:18:45.608Z,1010.91
2016-08-29T01:18:55.601Z,1010.92
2016-08-29T01:19:05.598Z,1010.91
2016-08-29T01:19:15.594Z,1010.88
2016-08-29T01:19:25.589Z,1010.9
2016-08-29T01:19:35.586Z,1010.89
2016-08-29T01:19:45.578Z,1010.92
2016-08-29T01:19:55.576Z,1010.93
2016-08-29T01:20:05.572Z,1010.87
2016-08-29T01:20:15.567Z,1010.95
2016-08-29T01:20:25.564Z,1010.87
2016-08-29T01:20:35.565Z,1010.93
2016-08-29T01:20:45.555Z,1010.91
2016-08-29T01:20:55.551Z,1010.85
2016-08-29T01:21:05.546Z,1010.88
2016-08-29T01:21:15.540Z,1010.85
2016-08-29T01:21:25.535Z,1010.91
2016-08-29T01:21:35.533Z,1010.9
2016-08-29T01:21:45.534Z,1010.89
2016-08-29T01:21:55.523Z,1010.89
2016-08-29T01:22:05.517Z,1010.86
2016-08-29T01:22:15.513Z,1010.89
2016-08-29T01:22:25.512Z,1010.92
2016-08-29T01:22:35.505Z,1010.88
2016-08-29T01:22:45.499Z,1010.86
2016-08-29T01:22:55.496Z,1010.88
2016-08-29T01:23:05.492Z,1010.84
2016-08-29T01:23:15.485Z,1010.85
2016-08-29T01:23:25.482Z,1010.86
2016-08-29T01:23:35.480Z,1010.88
2016-08-29T01:23:45.474Z,1010.84
2016-08-29T01:23:55.470Z,1010.87
2016-08-29T01:24:05.470Z,1010.87
2016-08-29T01:24:15.461Z,1010.86
2016-08-29T01:24:25.456Z,1010.86
2016-08-29T01:24:35.454Z,1010.86
2016-08-29T01:24:45.447Z,1010.84
2016-08-29T01:24:55.443Z,1010.86
2016-08-29T01:25:05.440Z,1010.83
2016-08-29T01:25:15.435Z,1010.81
2016-08-29T01:25:25.434Z,1010.87
2016-08-29T01:25:35.427Z,1010.83
2016-08-29T01:25:45.421Z,1010.84
2016-08-29T01:25:55.416Z,1010.78
2016-08-29T01:26:05.419Z,1010.81
2016-08-29T01:26:15.408Z,1010.82
2016-08-29T01:26:25.403Z,1010.82
2016-08-29T01:26:35.400Z,1010.85
2016-08-29T01:26:45.395Z,1010.78
2016-08-29T01:26:55.390Z,1010.79
2016-08-29T01:27:05.387Z,1010.81
2016-08-29T01:27:15.380Z,1010.81
2016-08-29T01:27:25.376Z,1010.85
2016-08-29T01:27:35.372Z,1010.84
2016-08-29T01:27:45.368Z,1010.82
2016-08-29T01:27:55.365Z,1010.82
2016-08-29T01:28:05.361Z,1010.8
2016-08-29T01:28:15.354Z,1010.83
2016-08-29T01:28:25.351Z,1010.84
2016-08-29T01:28:35.346Z,1010.84
2016-08-29T01:28:45.343Z,1010.81
2016-08-29T01:28:55.336Z,1010.84
2016-08-29T01:29:05.333Z,1010.81
2016-08-29T01:29:15.329Z,1010.78
2016-08-29T01:29:25.325Z,1010.79
2016-08-29T01:29:35.320Z,1010.82
2016-08-29T01:29:45.317Z,1010.82
2016-08-29T01:29:55.310Z,1010.79
2016-08-29T01:30:05.308Z,1010.82
2016-08-29T01:30:15.305Z,1010.82
2016-08-29T01:30:25.298Z,1010.83
2016-08-29T01:30:35.292Z,1010.86
2016-08-29T01:30:45.289Z,1010.87
2016-08-29T01:30:55.285Z,1010.83
2016-08-29T01:31:05.281Z,1010.87
2016-08-29T01:31:15.282Z,1010.87
2016-08-29T01:31:25.273Z,1010.86
2016-08-29T01:31:35.267Z,1010.87
2016-08-29T01:31:45.262Z,1010.88
2016-08-29T01:31:55.260Z,1010.86
2016-08-29T01:32:05.253Z,1010.89
2016-08-29T01:32:15.979Z,1010.83
2016-08-29T01:32:25.248Z,1010.85
2016-08-29T01:32:35.241Z,1010.83
2016-08-29T01:32:45.235Z,1010.87
2016-08-29T01:32:55.231Z,1010.87
2016-08-29T01:33:05.228Z,1010.83
2016-08-29T01:33:15.223Z,1010.84
2016-08-29T01:33:25.219Z,1010.86
2016-08-29T01:33:35.216Z,1010.87
2016-08-29T01:33:45.209Z,1010.91
2016-08-29T01:33:55.204Z,1010.83
2016-08-29T01:34:05.204Z,1010.86
2016-08-29T01:34:15.198Z,1010.85
2016-08-29T01:34:25.192Z,1010.89
2016-08-29T01:34:35.188Z,1010.86
2016-08-29T01:34:45.182Z,1010.87
2016-08-29T01:34:55.179Z,1010.87
2016-08-29T01:35:05.176Z,1010.87
2016-08-29T01:35:15.169Z,1010.87
2016-08-29T01:35:25.167Z,1010.84
2016-08-29T01:35:35.162Z,1010.88
2016-08-29T01:35:45.157Z,1010.84
2016-08-29T01:35:55.152Z,1010.83
2016-08-29T01:36:05.148Z,1010.86
2016-08-29T01:36:15.144Z,1010.86
2016-08-29T01:36:25.139Z,1010.86
2016-08-29T01:36:35.135Z,1010.88
2016-08-29T01:36:45.131Z,1010.89
2016-08-29T01:36:55.126Z,1010.85
2016-08-29T01:37:05.122Z,1010.91
2016-08-29T01:37:15.118Z,1010.83
2016-08-29T01:37:25.112Z,1010.86
2016-08-29T01:37:35.107Z,1010.85
2016-08-29T01:37:45.103Z,1010.82
2016-08-29T01:37:55.099Z,1010.84
2016-08-29T01:38:05.094Z,1010.88
2016-08-29T01:38:15.091Z,1010.84
2016-08-29T01:38:25.087Z,1010.85
2016-08-29T01:38:35.082Z,1010.85
2016-08-29T01:38:45.081Z,1010.83
2016-08-29T01:38:55.072Z,1010.88
2016-08-29T01:39:05.068Z,1010.88
2016-08-29T01:39:15.065Z,1010.86
2016-08-29T01:39:25.061Z,1010.87
2016-08-29T01:39:35.056Z,1010.87
2016-08-29T01:39:45.053Z,1010.83
2016-08-29T01:39:55.048Z,1010.9
2016-08-29T01:40:05.042Z,1010.86
2016-08-29T01:40:15.039Z,1010.89
2016-08-29T01:40:25.033Z,1010.88
2016-08-29T01:40:35.029Z,1010.92
2016-08-29T01:40:45.026Z,1010.88
2016-08-29T01:40:55.021Z,1010.85
2016-08-29T01:41:05.017Z,1010.89
2016-08-29T01:41:15.012Z,1010.87
2016-08-29T01:41:25.006Z,1010.87
2016-08-29T01:41:35.003Z,1010.87
2016-08-29T01:41:44.999Z,1010.91
2016-08-29T01:41:54.993Z,1010.82
2016-08-29T01:42:04.988Z,1010.84
2016-08-29T01:42:14.987Z,1010.87
2016-08-29T01:42:24.981Z,1010.9
2016-08-29T01:42:34.977Z,1010.87
2016-08-29T01:42:44.973Z,1010.89
2016-08-29T01:42:54.966Z,1010.88
2016-08-29T01:43:04.962Z,1010.88
2016-08-29T01:43:14.959Z,1010.92
2016-08-29T01:43:24.953Z,1010.86
2016-08-29T01:43:34.951Z,1010.88
2016-08-29T01:43:44.944Z,1010.83
2016-08-29T01:43:54.940Z,1010.87
2016-08-29T01:44:04.936Z,1010.86
2016-08-29T01:44:14.932Z,1010.87
2016-08-29T01:44:24.928Z,1010.86
2016-08-29T01:44:34.922Z,1010.86
2016-08-29T01:44:44.919Z,1010.91
2016-08-29T01:44:54.915Z,1010.91
2016-08-29T01:45:04.909Z,1010.86
2016-08-29T01:45:14.907Z,1010.84
2016-08-29T01:45:24.900Z,1010.86
2016-08-29T01:45:34.896Z,1010.84
2016-08-29T01:45:44.893Z,1010.83
2016-08-29T01:45:54.889Z,1010.9
2016-08-29T01:46:04.884Z,1010.87
2016-08-29T01:46:14.880Z,1010.9
2016-08-29T01:46:24.875Z,1010.89
2016-08-29T01:46:34.869Z,1010.86
2016-08-29T01:46:44.867Z,1010.85
2016-08-29T01:46:54.862Z,1010.82
2016-08-29T01:47:04.858Z,1010.86
2016-08-29T01:47:14.853Z,1010.83
2016-08-29T01:47:24.849Z,1010.89
2016-08-29T01:47:34.844Z,1010.89
2016-08-29T01:47:44.838Z,1010.88
2016-08-29T01:47:54.835Z,1010.88
2016-08-29T01:48:04.827Z,1010.9
2016-08-29T01:48:14.827Z,1010.88
2016-08-29T01:48:24.822Z,1010.9
2016-08-29T01:48:34.815Z,1010.88
2016-08-29T01:48:44.812Z,1010.89
2016-08-29T01:48:54.808Z,1010.86
2016-08-29T01:49:04.805Z,1010.9
2016-08-29T01:49:14.798Z,1010.89
2016-08-29T01:49:24.794Z,1010.87
2016-08-29T01:49:34.790Z,1010.89
2016-08-29T01:49:44.787Z,1010.95
2016-08-29T01:49:54.782Z,1010.93
2016-08-29T01:50:04.787Z,1010.93
2016-08-29T01:50:14.780Z,1010.92
2016-08-29T01:50:24.769Z,1010.92
2016-08-29T01:50:34.763Z,1010.92
2016-08-29T01:50:44.758Z,1010.91
2016-08-29T01:50:54.761Z,1010.93
2016-08-29T01:51:04.752Z,1010.91
2016-08-29T01:51:14.746Z,1010.91
2016-08-29T01:51:24.741Z,1010.93
2016-08-29T01:51:34.742Z,1010.89
2016-08-29T01:51:44.735Z,1010.92
2016-08-29T01:51:54.729Z,1010.99
2016-08-29T01:52:04.725Z,1010.94
2016-08-29T01:52:14.719Z,1010.94
2016-08-29T01:52:24.716Z,1010.91
2016-08-29T01:52:34.708Z,1010.92
2016-08-29T01:52:44.707Z,1010.93
2016-08-29T01:52:54.702Z,1010.92
2016-08-29T01:53:04.696Z,1010.9
2016-08-29T01:53:14.696Z,1010.9
2016-08-29T01:53:24.688Z,1010.88
2016-08-29T01:53:34.685Z,1010.91
2016-08-29T01:53:44.680Z,1010.93
2016-08-29T01:53:54.674Z,1010.96
2016-08-29T01:54:04.671Z,1010.91
2016-08-29T01:54:14.668Z,1010.97
2016-08-29T01:54:24.663Z,1010.94
2016-08-29T01:54:34.658Z,1010.91
2016-08-29T01:54:44.651Z,1010.96
2016-08-29T01:54:54.649Z,1010.93
2016-08-29T01:55:04.645Z,1010.94
2016-08-29T01:55:14.640Z,1010.91
2016-08-29T01:55:24.636Z,1010.98
2016-08-29T01:55:34.632Z,1010.99
2016-08-29T01:55:44.628Z,1010.95
2016-08-29T01:55:54.623Z,1010.94
2016-08-29T01:56:04.618Z,1010.94
2016-08-29T01:56:14.613Z,1010.93
2016-08-29T01:56:24.611Z,1010.95
2016-08-29T01:56:34.604Z,1010.94
2016-08-29T01:56:44.601Z,1011
2016-08-29T01:56:54.598Z,1010.99
2016-08-29T01:57:04.591Z,1010.95
2016-08-29T01:57:14.600Z,1011
2016-08-29T01:57:24.581Z,1010.96
2016-08-29T01:57:34.579Z,1010.98
2016-08-29T01:57:44.574Z,1011.05
2016-08-29T01:57:54.571Z,1010.98
2016-08-29T01:58:04.564Z,1011.04
2016-08-29T01:58:14.563Z,1010.98
2016-08-29T01:58:24.556Z,1011.02
2016-08-29T01:58:34.553Z,1011.04
2016-08-29T01:58:44.547Z,1011
2016-08-29T01:58:54.544Z,1011.04
2016-08-29T01:59:04.538Z,1010.98
2016-08-29T01:59:14.533Z,1010.95
2016-08-29T01:59:24.529Z,1011.01
2016-08-29T01:59:34.526Z,1011.06
2016-08-29T01:59:44.521Z,1011.02
2016-08-29T01:59:54.517Z,1011.03
2016-08-29T02:00:04.512Z,1011.07
2016-08-29T02:00:14.506Z,1011.02
2016-08-29T02:00:24.504Z,1011.02
2016-08-29T02:00:34.498Z,1011
2016-08-29T02:00:44.494Z,1011.05
2016-08-29T02:00:54.490Z,1011.05
2016-08-29T02:01:04.487Z,1011.07
2016-08-29T02:01:14.482Z,1011.05
2016-08-29T02:01:24.473Z,1010.99